sensor_id;sensor_type;location;lat;lon;timestamp;temperature;humidity
11840;DHT22;5979;50.800;4.904;2023-09-19T00:00:23;16.60;99.90
11840;DHT22;5979;50.800;4.904;2023-09-19T00:02:56;16.50;99.90
11840;DHT22;5979;50.800;4.904;2023-09-19T00:05:23;16.60;99.90
11840;DHT22;5979;50.800;4.904;2023-09-19T00:07:53;16.60;99.90
11840;DHT22;5979;50.800;4.904;2023-09-19T00:10:23;16.60;99.90
11840;DHT22;5979;50.800;4.904;2023-09-19T00:12:55;16.50;99.90
11840;DHT22;5979;50.800;4.904;2023-09-19T00:15:22;16.50;99.90
11840;DHT22;5979;50.800;4.904;2023-09-19T00:17:47;16.40;99.90
11840;DHT22;5979;50.800;4.904;2023-09-19T00:20:14;16.40;99.90
11840;DHT22;5979;50.800;4.904;2023-09-19T00:22:43;16.40;99.90
11840;DHT22;5979;50.800;4.904;2023-09-19T00:25:08;16.40;99.90
11840;DHT22;5979;50.800;4.904;2023-09-19T00:27:38;16.40;99.90
11840;DHT22;5979;50.800;4.904;2023-09-19T00:30:08;16.40;99.90
11840;DHT22;5979;50.800;4.904;2023-09-19T00:32:40;16.40;99.90
11840;DHT22;5979;50.800;4.904;2023-09-19T00:35:06;16.40;99.90
11840;DHT22;5979;50.800;4.904;2023-09-19T00:37:33;16.40;99.90
11840;DHT22;5979;50.800;4.904;2023-09-19T00:39:59;16.30;99.90
11840;DHT22;5979;50.800;4.904;2023-09-19T00:42:25;16.40;99.90
11840;DHT22;5979;50.800;4.904;2023-09-19T00:44:51;16.40;99.90
11840;DHT22;5979;50.800;4.904;2023-09-19T00:47:18;16.40;99.90
11840;DHT22;5979;50.800;4.904;2023-09-19T00:49:47;16.40;99.90
11840;DHT22;5979;50.800;4.904;2023-09-19T00:52:16;16.30;99.90
11840;DHT22;5979;50.800;4.904;2023-09-19T00:54:46;16.30;99.90
11840;DHT22;5979;50.800;4.904;2023-09-19T00:57:13;16.30;99.90
11840;DHT22;5979;50.800;4.904;2023-09-19T00:59:40;16.30;99.90
11840;DHT22;5979;50.800;4.904;2023-09-19T01:02:06;16.30;99.90
11840;DHT22;5979;50.800;4.904;2023-09-19T01:04:34;16.30;99.90
11840;DHT22;5979;50.800;4.904;2023-09-19T01:06:59;16.20;99.90
11840;DHT22;5979;50.800;4.904;2023-09-19T01:09:25;16.20;99.90
11840;DHT22;5979;50.800;4.904;2023-09-19T01:11:53;16.30;99.90
11840;DHT22;5979;50.800;4.904;2023-09-19T01:14:59;16.30;99.90
11840;DHT22;5979;50.800;4.904;2023-09-19T01:17:35;16.20;99.90
11840;DHT22;5979;50.800;4.904;2023-09-19T01:20:33;16.20;99.90
11840;DHT22;5979;50.800;4.904;2023-09-19T01:28:51;16.20;99.90
11840;DHT22;5979;50.800;4.904;2023-09-19T01:31:20;16.20;99.90
11840;DHT22;5979;50.800;4.904;2023-09-19T01:36:23;16.20;99.90
11840;DHT22;5979;50.800;4.904;2023-09-19T01:38:50;16.20;99.90
11840;DHT22;5979;50.800;4.904;2023-09-19T01:41:29;16.20;99.90
11840;DHT22;5979;50.800;4.904;2023-09-19T01:44:00;16.10;99.90
11840;DHT22;5979;50.800;4.904;2023-09-19T01:46:39;16.00;99.90
11840;DHT22;5979;50.800;4.904;2023-09-19T01:49:27;16.10;99.90
11840;DHT22;5979;50.800;4.904;2023-09-19T01:52:02;16.00;99.90
11840;DHT22;5979;50.800;4.904;2023-09-19T01:54:35;16.00;99.90
11840;DHT22;5979;50.800;4.904;2023-09-19T01:57:15;15.90;99.90
11840;DHT22;5979;50.800;4.904;2023-09-19T01:59:47;15.90;99.90
11840;DHT22;5979;50.800;4.904;2023-09-19T02:02:15;15.90;99.90
11840;DHT22;5979;50.800;4.904;2023-09-19T02:04:43;15.90;99.90
11840;DHT22;5979;50.800;4.904;2023-09-19T02:07:09;15.90;99.90
11840;DHT22;5979;50.800;4.904;2023-09-19T02:09:34;15.90;99.90
11840;DHT22;5979;50.800;4.904;2023-09-19T02:12:01;15.80;99.90
11840;DHT22;5979;50.800;4.904;2023-09-19T02:14:29;15.80;99.90
11840;DHT22;5979;50.800;4.904;2023-09-19T02:16:55;15.80;99.90
11840;DHT22;5979;50.800;4.904;2023-09-19T02:19:22;15.80;99.90
11840;DHT22;5979;50.800;4.904;2023-09-19T02:21:47;15.80;99.90
11840;DHT22;5979;50.800;4.904;2023-09-19T02:24:14;15.80;99.90
11840;DHT22;5979;50.800;4.904;2023-09-19T02:26:41;15.80;99.90
11840;DHT22;5979;50.800;4.904;2023-09-19T02:29:06;15.70;99.90
11840;DHT22;5979;50.800;4.904;2023-09-19T02:31:32;15.70;99.90
11840;DHT22;5979;50.800;4.904;2023-09-19T02:33:57;15.60;99.90
11840;DHT22;5979;50.800;4.904;2023-09-19T02:36:23;15.60;99.90
11840;DHT22;5979;50.800;4.904;2023-09-19T02:38:49;15.60;99.90
11840;DHT22;5979;50.800;4.904;2023-09-19T02:41:15;15.60;99.90
11840;DHT22;5979;50.800;4.904;2023-09-19T02:43:41;15.60;99.90
11840;DHT22;5979;50.800;4.904;2023-09-19T02:46:08;15.60;99.90
11840;DHT22;5979;50.800;4.904;2023-09-19T02:48:34;15.60;99.90
11840;DHT22;5979;50.800;4.904;2023-09-19T02:51:01;15.60;99.90
11840;DHT22;5979;50.800;4.904;2023-09-19T02:53:27;15.60;99.90
11840;DHT22;5979;50.800;4.904;2023-09-19T02:55:53;15.50;99.90
11840;DHT22;5979;50.800;4.904;2023-09-19T02:58:18;15.50;99.90
11840;DHT22;5979;50.800;4.904;2023-09-19T03:00:45;15.50;99.90
11840;DHT22;5979;50.800;4.904;2023-09-19T03:03:15;15.40;99.90
11840;DHT22;5979;50.800;4.904;2023-09-19T03:05:44;15.40;99.90
11840;DHT22;5979;50.800;4.904;2023-09-19T03:08:13;15.40;99.90
11840;DHT22;5979;50.800;4.904;2023-09-19T03:10:42;15.40;99.90
11840;DHT22;5979;50.800;4.904;2023-09-19T03:13:08;15.40;99.90
11840;DHT22;5979;50.800;4.904;2023-09-19T03:15:41;15.40;99.90
11840;DHT22;5979;50.800;4.904;2023-09-19T03:18:09;15.50;99.90
11840;DHT22;5979;50.800;4.904;2023-09-19T03:20:35;15.50;99.90
11840;DHT22;5979;50.800;4.904;2023-09-19T03:23:01;15.60;99.90
11840;DHT22;5979;50.800;4.904;2023-09-19T03:25:28;15.60;99.90
11840;DHT22;5979;50.800;4.904;2023-09-19T03:27:56;15.60;99.90
11840;DHT22;5979;50.800;4.904;2023-09-19T03:30:23;15.70;99.90
11840;DHT22;5979;50.800;4.904;2023-09-19T03:32:49;15.70;99.90
11840;DHT22;5979;50.800;4.904;2023-09-19T03:35:16;15.70;99.90
11840;DHT22;5979;50.800;4.904;2023-09-19T03:37:42;15.70;99.90
11840;DHT22;5979;50.800;4.904;2023-09-19T03:40:09;15.60;99.90
11840;DHT22;5979;50.800;4.904;2023-09-19T03:42:41;15.60;99.90
11840;DHT22;5979;50.800;4.904;2023-09-19T03:45:10;15.60;99.90
11840;DHT22;5979;50.800;4.904;2023-09-19T03:47:38;15.60;99.90
11840;DHT22;5979;50.800;4.904;2023-09-19T03:50:05;15.60;99.90
11840;DHT22;5979;50.800;4.904;2023-09-19T03:52:32;15.60;99.90
11840;DHT22;5979;50.800;4.904;2023-09-19T03:54:58;15.60;99.90
11840;DHT22;5979;50.800;4.904;2023-09-19T03:57:24;15.60;99.90
11840;DHT22;5979;50.800;4.904;2023-09-19T03:59:49;15.60;99.90
11840;DHT22;5979;50.800;4.904;2023-09-19T04:02:15;15.60;99.90
11840;DHT22;5979;50.800;4.904;2023-09-19T04:04:51;15.60;99.90
11840;DHT22;5979;50.800;4.904;2023-09-19T04:07:17;15.60;99.90
11840;DHT22;5979;50.800;4.904;2023-09-19T04:09:44;15.60;99.90
11840;DHT22;5979;50.800;4.904;2023-09-19T04:12:11;15.60;99.90
11840;DHT22;5979;50.800;4.904;2023-09-19T04:14:37;15.60;99.90
11840;DHT22;5979;50.800;4.904;2023-09-19T04:17:04;15.60;99.90
11840;DHT22;5979;50.800;4.904;2023-09-19T04:19:31;15.50;99.90
11840;DHT22;5979;50.800;4.904;2023-09-19T04:21:56;15.40;99.90
11840;DHT22;5979;50.800;4.904;2023-09-19T04:24:22;15.30;99.90
11840;DHT22;5979;50.800;4.904;2023-09-19T04:26:48;15.30;99.90
11840;DHT22;5979;50.800;4.904;2023-09-19T04:29:13;15.30;99.90
11840;DHT22;5979;50.800;4.904;2023-09-19T04:31:40;15.30;99.90
11840;DHT22;5979;50.800;4.904;2023-09-19T04:34:06;15.30;99.90
11840;DHT22;5979;50.800;4.904;2023-09-19T04:36:33;15.20;99.90
11840;DHT22;5979;50.800;4.904;2023-09-19T04:38:59;15.20;99.90
11840;DHT22;5979;50.800;4.904;2023-09-19T04:41:24;15.20;99.90
11840;DHT22;5979;50.800;4.904;2023-09-19T04:43:50;15.30;99.90
11840;DHT22;5979;50.800;4.904;2023-09-19T04:46:16;15.20;99.90
11840;DHT22;5979;50.800;4.904;2023-09-19T04:48:43;15.20;99.90
11840;DHT22;5979;50.800;4.904;2023-09-19T04:51:09;15.20;99.90
11840;DHT22;5979;50.800;4.904;2023-09-19T04:53:36;15.20;99.90
11840;DHT22;5979;50.800;4.904;2023-09-19T04:56:02;15.20;99.90
11840;DHT22;5979;50.800;4.904;2023-09-19T04:58:29;15.20;99.90
11840;DHT22;5979;50.800;4.904;2023-09-19T05:00:55;15.10;99.90
11840;DHT22;5979;50.800;4.904;2023-09-19T05:03:21;15.10;99.90
11840;DHT22;5979;50.800;4.904;2023-09-19T05:05:48;15.10;99.90
11840;DHT22;5979;50.800;4.904;2023-09-19T05:08:14;15.10;99.90
11840;DHT22;5979;50.800;4.904;2023-09-19T05:10:40;15.10;99.90
11840;DHT22;5979;50.800;4.904;2023-09-19T05:13:06;15.10;99.90
11840;DHT22;5979;50.800;4.904;2023-09-19T05:15:33;15.10;99.90
11840;DHT22;5979;50.800;4.904;2023-09-19T05:17:59;15.10;99.90
11840;DHT22;5979;50.800;4.904;2023-09-19T05:20:25;15.00;99.90
11840;DHT22;5979;50.800;4.904;2023-09-19T05:23:06;15.00;99.90
11840;DHT22;5979;50.800;4.904;2023-09-19T05:25:38;15.00;99.90
11840;DHT22;5979;50.800;4.904;2023-09-19T05:28:08;15.00;99.90
11840;DHT22;5979;50.800;4.904;2023-09-19T05:30:35;15.00;99.90
11840;DHT22;5979;50.800;4.904;2023-09-19T05:33:04;15.00;99.90
11840;DHT22;5979;50.800;4.904;2023-09-19T05:35:31;14.90;99.90
11840;DHT22;5979;50.800;4.904;2023-09-19T05:37:57;15.00;99.90
11840;DHT22;5979;50.800;4.904;2023-09-19T05:40:24;15.00;99.90
11840;DHT22;5979;50.800;4.904;2023-09-19T05:42:50;15.00;99.90
11840;DHT22;5979;50.800;4.904;2023-09-19T05:45:17;15.00;99.90
11840;DHT22;5979;50.800;4.904;2023-09-19T05:47:49;15.00;99.90
11840;DHT22;5979;50.800;4.904;2023-09-19T05:50:16;15.00;99.90
11840;DHT22;5979;50.800;4.904;2023-09-19T05:52:50;15.00;99.90
11840;DHT22;5979;50.800;4.904;2023-09-19T05:55:17;15.10;99.90
11840;DHT22;5979;50.800;4.904;2023-09-19T05:57:43;15.10;99.90
11840;DHT22;5979;50.800;4.904;2023-09-19T06:00:09;15.10;99.90
11840;DHT22;5979;50.800;4.904;2023-09-19T06:02:38;15.10;99.90
11840;DHT22;5979;50.800;4.904;2023-09-19T06:05:06;15.20;99.90
11840;DHT22;5979;50.800;4.904;2023-09-19T06:07:32;15.20;99.90
11840;DHT22;5979;50.800;4.904;2023-09-19T06:10:05;15.20;99.90
11840;DHT22;5979;50.800;4.904;2023-09-19T06:12:32;15.30;99.90
11840;DHT22;5979;50.800;4.904;2023-09-19T06:15:05;15.30;99.90
11840;DHT22;5979;50.800;4.904;2023-09-19T06:17:34;15.40;99.90
11840;DHT22;5979;50.800;4.904;2023-09-19T06:20:06;15.40;99.90
11840;DHT22;5979;50.800;4.904;2023-09-19T06:22:44;15.50;99.90
11840;DHT22;5979;50.800;4.904;2023-09-19T06:25:11;15.60;99.90
11840;DHT22;5979;50.800;4.904;2023-09-19T06:27:39;15.70;99.90
11840;DHT22;5979;50.800;4.904;2023-09-19T06:30:09;15.70;99.90
11840;DHT22;5979;50.800;4.904;2023-09-19T06:32:35;15.70;99.90
11840;DHT22;5979;50.800;4.904;2023-09-19T06:35:00;15.80;99.90
11840;DHT22;5979;50.800;4.904;2023-09-19T06:37:29;15.90;99.90
11840;DHT22;5979;50.800;4.904;2023-09-19T06:39:55;15.90;99.90
11840;DHT22;5979;50.800;4.904;2023-09-19T06:42:22;15.90;99.90
11840;DHT22;5979;50.800;4.904;2023-09-19T06:44:49;16.00;99.90
11840;DHT22;5979;50.800;4.904;2023-09-19T06:47:14;16.10;99.90
11840;DHT22;5979;50.800;4.904;2023-09-19T06:49:41;16.10;99.90
11840;DHT22;5979;50.800;4.904;2023-09-19T06:52:09;16.20;99.90
11840;DHT22;5979;50.800;4.904;2023-09-19T06:54:35;16.30;99.90
11840;DHT22;5979;50.800;4.904;2023-09-19T06:57:01;16.40;99.90
11840;DHT22;5979;50.800;4.904;2023-09-19T06:59:27;16.50;99.90
11840;DHT22;5979;50.800;4.904;2023-09-19T07:01:53;16.50;99.90
11840;DHT22;5979;50.800;4.904;2023-09-19T07:04:18;16.70;99.90
11840;DHT22;5979;50.800;4.904;2023-09-19T07:06:50;16.70;99.90
11840;DHT22;5979;50.800;4.904;2023-09-19T07:09:16;16.70;99.90
11840;DHT22;5979;50.800;4.904;2023-09-19T07:11:42;16.70;99.90
11840;DHT22;5979;50.800;4.904;2023-09-19T07:14:08;16.80;99.90
11840;DHT22;5979;50.800;4.904;2023-09-19T07:16:37;16.80;99.90
11840;DHT22;5979;50.800;4.904;2023-09-19T07:19:04;16.80;99.90
11840;DHT22;5979;50.800;4.904;2023-09-19T07:21:30;16.90;99.90
11840;DHT22;5979;50.800;4.904;2023-09-19T07:23:59;16.90;99.90
11840;DHT22;5979;50.800;4.904;2023-09-19T07:26:26;16.90;99.90
11840;DHT22;5979;50.800;4.904;2023-09-19T07:28:53;16.90;99.90
11840;DHT22;5979;50.800;4.904;2023-09-19T07:31:19;17.00;99.90
11840;DHT22;5979;50.800;4.904;2023-09-19T07:33:45;17.00;99.90
11840;DHT22;5979;50.800;4.904;2023-09-19T07:36:11;17.20;99.90
11840;DHT22;5979;50.800;4.904;2023-09-19T07:38:39;17.30;99.90
11840;DHT22;5979;50.800;4.904;2023-09-19T07:41:05;17.60;99.90
11840;DHT22;5979;50.800;4.904;2023-09-19T07:43:31;17.70;99.90
11840;DHT22;5979;50.800;4.904;2023-09-19T07:45:57;17.80;99.90
11840;DHT22;5979;50.800;4.904;2023-09-19T07:48:26;17.90;99.90
11840;DHT22;5979;50.800;4.904;2023-09-19T07:50:51;18.10;99.90
11840;DHT22;5979;50.800;4.904;2023-09-19T07:53:17;18.10;99.90
11840;DHT22;5979;50.800;4.904;2023-09-19T07:55:43;18.30;99.90
11840;DHT22;5979;50.800;4.904;2023-09-19T07:58:09;18.30;99.90
11840;DHT22;5979;50.800;4.904;2023-09-19T08:00:34;18.30;99.90
11840;DHT22;5979;50.800;4.904;2023-09-19T08:03:01;18.50;99.90
11840;DHT22;5979;50.800;4.904;2023-09-19T08:05:26;18.50;99.90
11840;DHT22;5979;50.800;4.904;2023-09-19T08:07:53;18.60;99.90
11840;DHT22;5979;50.800;4.904;2023-09-19T08:10:22;18.60;99.90
11840;DHT22;5979;50.800;4.904;2023-09-19T08:12:48;18.60;99.90
11840;DHT22;5979;50.800;4.904;2023-09-19T08:15:19;18.60;99.90
11840;DHT22;5979;50.800;4.904;2023-09-19T08:17:45;18.70;99.90
11840;DHT22;5979;50.800;4.904;2023-09-19T08:20:11;18.80;99.90
11840;DHT22;5979;50.800;4.904;2023-09-19T08:22:49;19.00;99.90
11840;DHT22;5979;50.800;4.904;2023-09-19T08:25:18;19.00;99.90
11840;DHT22;5979;50.800;4.904;2023-09-19T08:27:47;19.00;99.90
11840;DHT22;5979;50.800;4.904;2023-09-19T08:30:18;19.10;99.90
11840;DHT22;5979;50.800;4.904;2023-09-19T08:32:45;19.20;99.90
11840;DHT22;5979;50.800;4.904;2023-09-19T08:35:13;19.10;99.90
11840;DHT22;5979;50.800;4.904;2023-09-19T08:37:39;19.20;99.90
11840;DHT22;5979;50.800;4.904;2023-09-19T08:40:05;19.20;99.90
11840;DHT22;5979;50.800;4.904;2023-09-19T08:42:55;19.30;99.90
11840;DHT22;5979;50.800;4.904;2023-09-19T08:45:22;19.40;99.90
11840;DHT22;5979;50.800;4.904;2023-09-19T08:50:55;19.60;99.90
11840;DHT22;5979;50.800;4.904;2023-09-19T08:53:30;19.70;99.90
11840;DHT22;5979;50.800;4.904;2023-09-19T08:55:59;19.70;99.90
11840;DHT22;5979;50.800;4.904;2023-09-19T08:58:31;19.60;99.90
11840;DHT22;5979;50.800;4.904;2023-09-19T09:01:00;19.60;99.90
11840;DHT22;5979;50.800;4.904;2023-09-19T09:03:32;19.60;99.90
11840;DHT22;5979;50.800;4.904;2023-09-19T09:05:58;19.60;99.90
11840;DHT22;5979;50.800;4.904;2023-09-19T09:08:25;19.70;99.90
11840;DHT22;5979;50.800;4.904;2023-09-19T09:10:51;19.80;99.90
11840;DHT22;5979;50.800;4.904;2023-09-19T09:13:17;19.80;99.90
11840;DHT22;5979;50.800;4.904;2023-09-19T09:15:43;20.00;99.90
11840;DHT22;5979;50.800;4.904;2023-09-19T09:18:10;20.00;99.90
11840;DHT22;5979;50.800;4.904;2023-09-19T09:20:36;20.00;99.90
11840;DHT22;5979;50.800;4.904;2023-09-19T09:23:01;20.00;99.90
11840;DHT22;5979;50.800;4.904;2023-09-19T09:25:53;20.00;99.90
11840;DHT22;5979;50.800;4.904;2023-09-19T09:28:30;20.00;99.90
11840;DHT22;5979;50.800;4.904;2023-09-19T09:31:00;20.00;99.90
11840;DHT22;5979;50.800;4.904;2023-09-19T09:33:28;20.00;99.90
11840;DHT22;5979;50.800;4.904;2023-09-19T09:35:59;20.10;99.90
11840;DHT22;5979;50.800;4.904;2023-09-19T09:38:49;20.20;99.90
11840;DHT22;5979;50.800;4.904;2023-09-19T09:41:17;20.30;99.90
11840;DHT22;5979;50.800;4.904;2023-09-19T09:43:53;20.30;99.90
11840;DHT22;5979;50.800;4.904;2023-09-19T09:46:20;20.40;99.90
11840;DHT22;5979;50.800;4.904;2023-09-19T09:52:03;20.30;99.90
11840;DHT22;5979;50.800;4.904;2023-09-19T09:54:33;20.40;99.90
11840;DHT22;5979;50.800;4.904;2023-09-19T09:57:07;20.30;99.90
11840;DHT22;5979;50.800;4.904;2023-09-19T09:59:56;20.30;99.90
11840;DHT22;5979;50.800;4.904;2023-09-19T10:02:41;20.30;99.90
11840;DHT22;5979;50.800;4.904;2023-09-19T10:05:14;20.20;99.90
11840;DHT22;5979;50.800;4.904;2023-09-19T10:08:10;20.10;99.90
11840;DHT22;5979;50.800;4.904;2023-09-19T10:10:41;20.00;99.90
11840;DHT22;5979;50.800;4.904;2023-09-19T10:13:08;20.10;99.90
11840;DHT22;5979;50.800;4.904;2023-09-19T10:15:38;20.20;99.90
11840;DHT22;5979;50.800;4.904;2023-09-19T10:18:07;20.20;99.90
11840;DHT22;5979;50.800;4.904;2023-09-19T10:20:45;20.20;99.90
11840;DHT22;5979;50.800;4.904;2023-09-19T10:23:11;20.10;99.90
11840;DHT22;5979;50.800;4.904;2023-09-19T10:25:44;20.00;99.90
11840;DHT22;5979;50.800;4.904;2023-09-19T10:28:15;20.00;99.90
11840;DHT22;5979;50.800;4.904;2023-09-19T10:30:47;20.00;99.90
11840;DHT22;5979;50.800;4.904;2023-09-19T10:33:17;20.00;99.90
11840;DHT22;5979;50.800;4.904;2023-09-19T10:35:47;20.00;99.90
11840;DHT22;5979;50.800;4.904;2023-09-19T10:38:17;20.00;99.90
11840;DHT22;5979;50.800;4.904;2023-09-19T10:40:44;20.10;99.90
11840;DHT22;5979;50.800;4.904;2023-09-19T10:43:16;20.30;99.90
11840;DHT22;5979;50.800;4.904;2023-09-19T10:45:49;20.40;99.90
11840;DHT22;5979;50.800;4.904;2023-09-19T10:48:17;20.50;99.90
11840;DHT22;5979;50.800;4.904;2023-09-19T10:53:40;20.60;99.90
11840;DHT22;5979;50.800;4.904;2023-09-19T10:56:08;20.70;99.90
11840;DHT22;5979;50.800;4.904;2023-09-19T10:58:40;20.70;99.90
11840;DHT22;5979;50.800;4.904;2023-09-19T11:01:11;20.80;99.90
11840;DHT22;5979;50.800;4.904;2023-09-19T11:03:44;20.90;99.90
11840;DHT22;5979;50.800;4.904;2023-09-19T11:11:42;21.10;99.90
11840;DHT22;5979;50.800;4.904;2023-09-19T11:30:41;20.90;99.90
11840;DHT22;5979;50.800;4.904;2023-09-19T11:46:27;21.30;99.90
11840;DHT22;5979;50.800;4.904;2023-09-19T11:48:54;21.30;99.90
11840;DHT22;5979;50.800;4.904;2023-09-19T11:51:21;21.40;99.90
11840;DHT22;5979;50.800;4.904;2023-09-19T11:53:57;21.50;99.90
11840;DHT22;5979;50.800;4.904;2023-09-19T11:56:26;21.60;99.90
11840;DHT22;5979;50.800;4.904;2023-09-19T11:58:57;21.80;99.90
11840;DHT22;5979;50.800;4.904;2023-09-19T12:03:56;21.80;99.90
11840;DHT22;5979;50.800;4.904;2023-09-19T12:06:26;21.80;99.90
11840;DHT22;5979;50.800;4.904;2023-09-19T12:08:52;21.70;99.90
11840;DHT22;5979;50.800;4.904;2023-09-19T12:11:21;21.60;99.90
11840;DHT22;5979;50.800;4.904;2023-09-19T12:13:49;21.40;99.90
11840;DHT22;5979;50.800;4.904;2023-09-19T12:16:19;21.40;99.90
11840;DHT22;5979;50.800;4.904;2023-09-19T12:18:49;21.50;99.90
11840;DHT22;5979;50.800;4.904;2023-09-19T12:21:25;21.50;99.90
11840;DHT22;5979;50.800;4.904;2023-09-19T12:24:12;21.60;99.90
11840;DHT22;5979;50.800;4.904;2023-09-19T12:26:46;21.60;99.90
11840;DHT22;5979;50.800;4.904;2023-09-19T12:29:19;21.60;99.90
11840;DHT22;5979;50.800;4.904;2023-09-19T12:31:58;21.50;99.90
11840;DHT22;5979;50.800;4.904;2023-09-19T12:37:08;21.40;99.90
11840;DHT22;5979;50.800;4.904;2023-09-19T12:40:05;21.40;99.90
11840;DHT22;5979;50.800;4.904;2023-09-19T12:42:47;21.30;99.90
11840;DHT22;5979;50.800;4.904;2023-09-19T12:45:14;21.20;99.90
11840;DHT22;5979;50.800;4.904;2023-09-19T12:47:41;21.20;99.90
11840;DHT22;5979;50.800;4.904;2023-09-19T12:50:26;21.20;99.90
11840;DHT22;5979;50.800;4.904;2023-09-19T12:52:55;21.10;99.90
11840;DHT22;5979;50.800;4.904;2023-09-19T12:55:26;21.00;99.90
11840;DHT22;5979;50.800;4.904;2023-09-19T12:58:14;20.90;99.90
11840;DHT22;5979;50.800;4.904;2023-09-19T13:00:45;20.90;99.90
11840;DHT22;5979;50.800;4.904;2023-09-19T13:05:57;20.90;99.90
11840;DHT22;5979;50.800;4.904;2023-09-19T13:11:13;20.90;99.90
11840;DHT22;5979;50.800;4.904;2023-09-19T13:13:44;21.10;99.90
11840;DHT22;5979;50.800;4.904;2023-09-19T13:16:11;21.10;99.90
11840;DHT22;5979;50.800;4.904;2023-09-19T13:18:55;21.20;99.90
11840;DHT22;5979;50.800;4.904;2023-09-19T13:21:32;21.10;99.90
11840;DHT22;5979;50.800;4.904;2023-09-19T13:24:21;21.10;99.90
11840;DHT22;5979;50.800;4.904;2023-09-19T13:26:49;21.20;99.90
11840;DHT22;5979;50.800;4.904;2023-09-19T13:29:15;21.20;99.90
11840;DHT22;5979;50.800;4.904;2023-09-19T13:31:52;21.30;99.90
11840;DHT22;5979;50.800;4.904;2023-09-19T13:34:19;21.40;99.90
11840;DHT22;5979;50.800;4.904;2023-09-19T13:36:45;21.40;99.90
11840;DHT22;5979;50.800;4.904;2023-09-19T13:39:14;21.50;99.90
11840;DHT22;5979;50.800;4.904;2023-09-19T13:41:41;21.50;99.90
11840;DHT22;5979;50.800;4.904;2023-09-19T13:44:08;21.60;99.90
11840;DHT22;5979;50.800;4.904;2023-09-19T13:46:36;21.50;99.90
11840;DHT22;5979;50.800;4.904;2023-09-19T13:49:02;21.50;99.90
11840;DHT22;5979;50.800;4.904;2023-09-19T13:51:31;21.50;99.90
11840;DHT22;5979;50.800;4.904;2023-09-19T13:53:58;21.40;99.90
11840;DHT22;5979;50.800;4.904;2023-09-19T13:56:25;21.40;99.90
11840;DHT22;5979;50.800;4.904;2023-09-19T13:58:53;21.30;99.90
11840;DHT22;5979;50.800;4.904;2023-09-19T14:01:19;21.30;99.90
11840;DHT22;5979;50.800;4.904;2023-09-19T14:03:44;21.20;99.90
11840;DHT22;5979;50.800;4.904;2023-09-19T14:06:13;21.10;99.90
11840;DHT22;5979;50.800;4.904;2023-09-19T14:08:38;21.00;99.90
11840;DHT22;5979;50.800;4.904;2023-09-19T14:11:08;21.00;99.90
11840;DHT22;5979;50.800;4.904;2023-09-19T14:13:34;21.00;99.90
11840;DHT22;5979;50.800;4.904;2023-09-19T14:16:03;21.00;99.90
11840;DHT22;5979;50.800;4.904;2023-09-19T14:18:30;21.00;99.90
11840;DHT22;5979;50.800;4.904;2023-09-19T14:20:56;20.90;99.90
11840;DHT22;5979;50.800;4.904;2023-09-19T14:23:22;20.80;99.90
11840;DHT22;5979;50.800;4.904;2023-09-19T14:25:50;20.90;99.90
11840;DHT22;5979;50.800;4.904;2023-09-19T14:28:17;20.90;99.90
11840;DHT22;5979;50.800;4.904;2023-09-19T14:30:43;21.00;99.90
11840;DHT22;5979;50.800;4.904;2023-09-19T14:33:09;20.90;99.90
11840;DHT22;5979;50.800;4.904;2023-09-19T14:35:37;20.90;99.90
11840;DHT22;5979;50.800;4.904;2023-09-19T14:38:03;20.90;99.90
11840;DHT22;5979;50.800;4.904;2023-09-19T14:40:29;20.90;99.90
11840;DHT22;5979;50.800;4.904;2023-09-19T14:42:55;20.80;99.90
11840;DHT22;5979;50.800;4.904;2023-09-19T14:45:20;20.80;99.90
11840;DHT22;5979;50.800;4.904;2023-09-19T14:47:46;20.80;99.90
11840;DHT22;5979;50.800;4.904;2023-09-19T14:50:13;20.80;99.90
11840;DHT22;5979;50.800;4.904;2023-09-19T14:52:38;20.70;99.90
11840;DHT22;5979;50.800;4.904;2023-09-19T14:55:06;20.80;99.90
11840;DHT22;5979;50.800;4.904;2023-09-19T14:57:32;20.90;99.90
11840;DHT22;5979;50.800;4.904;2023-09-19T14:59:58;20.90;99.90
11840;DHT22;5979;50.800;4.904;2023-09-19T15:02:24;21.00;99.90
11840;DHT22;5979;50.800;4.904;2023-09-19T15:04:51;21.00;99.90
11840;DHT22;5979;50.800;4.904;2023-09-19T15:07:17;20.90;99.90
11840;DHT22;5979;50.800;4.904;2023-09-19T15:09:43;20.90;99.90
11840;DHT22;5979;50.800;4.904;2023-09-19T15:12:09;20.80;99.90
11840;DHT22;5979;50.800;4.904;2023-09-19T15:14:36;20.70;99.90
11840;DHT22;5979;50.800;4.904;2023-09-19T15:17:02;20.80;99.90
11840;DHT22;5979;50.800;4.904;2023-09-19T15:19:30;20.90;99.90
11840;DHT22;5979;50.800;4.904;2023-09-19T15:21:56;20.90;99.90
11840;DHT22;5979;50.800;4.904;2023-09-19T15:24:22;20.90;99.90
11840;DHT22;5979;50.800;4.904;2023-09-19T15:26:48;20.90;99.90
11840;DHT22;5979;50.800;4.904;2023-09-19T15:29:15;20.90;99.90
11840;DHT22;5979;50.800;4.904;2023-09-19T15:31:41;20.90;99.90
11840;DHT22;5979;50.800;4.904;2023-09-19T15:34:07;20.80;99.90
11840;DHT22;5979;50.800;4.904;2023-09-19T15:36:33;20.80;99.90
11840;DHT22;5979;50.800;4.904;2023-09-19T15:39:06;20.90;99.90
11840;DHT22;5979;50.800;4.904;2023-09-19T15:41:36;20.90;99.90
11840;DHT22;5979;50.800;4.904;2023-09-19T15:44:10;20.90;99.90
11840;DHT22;5979;50.800;4.904;2023-09-19T15:46:36;20.90;99.90
11840;DHT22;5979;50.800;4.904;2023-09-19T15:49:02;20.80;99.90
11840;DHT22;5979;50.800;4.904;2023-09-19T15:51:28;20.80;99.90
11840;DHT22;5979;50.800;4.904;2023-09-19T15:53:55;20.70;99.90
11840;DHT22;5979;50.800;4.904;2023-09-19T15:56:22;20.60;99.90
11840;DHT22;5979;50.800;4.904;2023-09-19T15:58:50;20.50;99.90
11840;DHT22;5979;50.800;4.904;2023-09-19T16:01:16;20.40;99.90
11840;DHT22;5979;50.800;4.904;2023-09-19T16:03:45;20.40;99.90
11840;DHT22;5979;50.800;4.904;2023-09-19T16:06:14;20.30;99.90
11840;DHT22;5979;50.800;4.904;2023-09-19T16:08:40;20.30;99.90
11840;DHT22;5979;50.800;4.904;2023-09-19T16:11:07;20.20;99.90
11840;DHT22;5979;50.800;4.904;2023-09-19T16:13:33;20.10;99.90
11840;DHT22;5979;50.800;4.904;2023-09-19T16:15:59;20.10;99.90
11840;DHT22;5979;50.800;4.904;2023-09-19T16:18:24;20.00;99.90
11840;DHT22;5979;50.800;4.904;2023-09-19T16:20:50;20.00;99.90
11840;DHT22;5979;50.800;4.904;2023-09-19T16:23:16;19.90;99.90
11840;DHT22;5979;50.800;4.904;2023-09-19T16:25:41;19.80;99.90
11840;DHT22;5979;50.800;4.904;2023-09-19T16:28:08;19.80;99.90
11840;DHT22;5979;50.800;4.904;2023-09-19T16:30:33;19.80;99.90
11840;DHT22;5979;50.800;4.904;2023-09-19T16:33:00;19.80;99.90
11840;DHT22;5979;50.800;4.904;2023-09-19T16:35:25;19.80;99.90
11840;DHT22;5979;50.800;4.904;2023-09-19T16:37:51;19.80;99.90
11840;DHT22;5979;50.800;4.904;2023-09-19T16:40:17;19.80;99.90
11840;DHT22;5979;50.800;4.904;2023-09-19T16:42:42;19.80;99.90
11840;DHT22;5979;50.800;4.904;2023-09-19T16:45:08;19.70;99.90
11840;DHT22;5979;50.800;4.904;2023-09-19T16:47:36;19.70;99.90
11840;DHT22;5979;50.800;4.904;2023-09-19T16:50:01;19.70;99.90
11840;DHT22;5979;50.800;4.904;2023-09-19T16:52:27;19.80;99.90
11840;DHT22;5979;50.800;4.904;2023-09-19T16:54:53;19.80;99.90
11840;DHT22;5979;50.800;4.904;2023-09-19T16:57:19;19.80;99.90